Close Search

Base
°C
Summit
°C

WEATHER AT A GLANCE

Image Slideshow

RMR Village

Revelstoke Mountain Resort -  RMR Village Webcam

Top of The Stoke

Revelstoke Mountain Resort -  Top of The Stoke Webcam

Top of Stellar

Revelstoke Mountain Resort -  Top of Stellar Webcam

Mackenzie Outpost

Revelstoke Mountain Resort -  Mackenzie Outpost Webcam

Ripper

Revelstoke Mountain Resort -  Ripper Webcam
Base
°C
Summit
°C
Wind (Summit)
km/h

Today's Forecast

Subpeak Weather

Time Avg. Air Temp Dew Point Avg. Rel Humidity Avg. 2 Min Wind Speed Max Gust Velocity MGV Time MGV Direction Avg. Spot Wind Velocity
2026-05-04 07:10:003° C-4° C60%34 km/h38 km/h07:08:00NE24 km/h
06:10:004° C-4° C59%20 km/h23 km/h06:09:00NE20 km/h
05:10:004° C-4° C58%24 km/h25 km/h05:06:00NE24 km/h
04:10:004° C-4° C55%20 km/h24 km/h04:10:00N15 km/h
03:10:004° C-4° C57%5 km/h31 km/h03:07:00NE15 km/h
02:10:004° C-4° C57%3 km/h24 km/h02:06:00W5 km/h
01:10:004° C-4° C57%5 km/h15 km/h01:10:00N5 km/h
00:10:005° C-4° C52%6 km/h11 km/h00:09:00S6 km/h
23:10:005° C-3° C53%7 km/h24 km/h23:08:00NE10 km/h
22:10:006° C-3° C55%5 km/h20 km/h22:07:00S9 km/h
21:10:006° C-3° C52%8 km/h18 km/h21:06:00NW10 km/h
20:10:007° C-3° C49%20 km/h23 km/h20:07:00NW20 km/h
19:10:007° C-3° C51%6 km/h13 km/h19:09:00NW2 km/h
18:10:007° C-3° C49%8 km/h19 km/h18:08:00N12 km/h
17:10:007° C-4° C49%9 km/h18 km/h17:09:00NW7 km/h
16:10:007° C-3° C49%16 km/h24 km/h16:07:00NW20 km/h
15:10:007° C-3° C50%4 km/h12 km/h15:08:00NW7 km/h
14:10:006° C-3° C51%10 km/h25 km/h14:07:00N15 km/h
13:10:005° C-4° C53%14 km/h19 km/h13:09:00NW14 km/h
12:10:005° C-4° C51%13 km/h19 km/h12:10:00NW12 km/h
11:10:005° C-5° C49%10 km/h15 km/h11:09:00NW11 km/h
10:10:004° C-6° C50%10 km/h14 km/h10:07:00NW11 km/h
09:10:004° C-6° C51%5 km/h11 km/h09:08:00N4 km/h
08:10:003° C-6° C52%5 km/h16 km/h08:06:00SW7 km/h

Time Avg. Air Temp Dew Point Avg. Rel Humidity Avg. 2 Min Wind Speed Max Gust Velocity MGV Time MGV Direction Avg. Spot Wind Velocity
2026-05-04 07:10:003° C-4° C60%34 km/h38 km/h07:08:00NE24 km/h
07:05:003° C-4° C60%31 km/h38 km/h07:02:00NE36 km/h
07:00:003° C-3° C60%35 km/h39 km/h06:59:00NE34 km/h
06:55:003° C-4° C59%34 km/h39 km/h06:55:00NE34 km/h
06:50:003° C-4° C59%34 km/h39 km/h06:50:00NE33 km/h
06:45:003° C-3° C60%32 km/h36 km/h06:45:00NE30 km/h
06:40:003° C-4° C60%29 km/h36 km/h06:38:00NE27 km/h
06:35:003° C-4° C61%29 km/h33 km/h06:35:00NE25 km/h
06:30:003° C-4° C62%23 km/h27 km/h06:27:00NE22 km/h
06:25:003° C-3° C61%24 km/h26 km/h06:25:00NE23 km/h
06:20:003° C-4° C60%23 km/h25 km/h06:20:00NE22 km/h
06:15:003° C-4° C60%22 km/h24 km/h06:15:00NE21 km/h
06:10:004° C-4° C59%20 km/h23 km/h06:09:00NE20 km/h

We value your privacy
We use cookies to enhance your browsing experience, serve personalized ads or content, and analyze our traffic. By clicking "Allow Cookies", you consent to our use of cookies. For additional details view our Privacy Policy.
Cookie preferences

You can control how your data is used on our website. Learn more below about the cookies we use by reviewing our Privacy Policy.

Your cookie preferences have been saved.